createdAt,value
2022-08-28T00:00:15.766Z,24.00
2022-08-28T00:02:42.570Z,24.00
2022-08-28T00:05:12.942Z,24.00
2022-08-28T00:07:42.293Z,24.00
2022-08-28T00:10:11.882Z,24.00
2022-08-28T00:12:41.011Z,23.90
2022-08-28T00:15:10.077Z,23.90
2022-08-28T00:17:42.359Z,23.90
2022-08-28T00:20:10.248Z,23.90
2022-08-28T00:22:40.085Z,23.90
2022-08-28T00:25:08.180Z,23.90
2022-08-28T00:27:53.043Z,23.80
2022-08-28T00:30:22.370Z,23.90
2022-08-28T00:32:49.238Z,23.90
2022-08-28T00:35:18.488Z,23.80
2022-08-28T00:37:50.581Z,23.70
2022-08-28T00:40:20.004Z,23.70
2022-08-28T00:42:55.898Z,23.70
2022-08-28T00:45:23.106Z,23.70
2022-08-28T00:47:50.239Z,23.70
2022-08-28T00:50:22.428Z,23.70
2022-08-28T00:52:50.946Z,23.70
2022-08-28T00:55:22.460Z,23.70
2022-08-28T00:57:59.111Z,23.60
2022-08-28T01:00:34.114Z,23.60
2022-08-28T01:03:03.580Z,23.60
2022-08-28T01:05:30.444Z,23.60
2022-08-28T01:08:00.090Z,23.50
2022-08-28T01:10:31.185Z,23.50
2022-08-28T01:12:58.111Z,23.50
2022-08-28T01:15:28.306Z,23.40
2022-08-28T01:18:12.279Z,23.40
2022-08-28T01:20:47.032Z,23.40
2022-08-28T01:23:22.886Z,23.30
2022-08-28T01:25:49.608Z,23.20
2022-08-28T01:28:16.768Z,23.20
2022-08-28T01:30:47.508Z,23.10
2022-08-28T01:33:19.600Z,23.10
2022-08-28T01:35:54.816Z,23.00
2022-08-28T01:38:23.202Z,23.00
2022-08-28T01:40:54.634Z,23.00
2022-08-28T01:43:26.201Z,23.00
2022-08-28T01:45:56.196Z,23.00
2022-08-28T01:48:24.031Z,22.90
2022-08-28T01:50:50.833Z,22.90
2022-08-28T01:53:19.637Z,22.90
2022-08-28T01:55:56.658Z,22.90
2022-08-28T01:58:26.008Z,22.80
2022-08-28T02:00:55.020Z,22.80
2022-08-28T02:03:24.333Z,22.80
2022-08-28T02:05:51.285Z,22.70
2022-08-28T02:08:18.323Z,22.70
2022-08-28T02:10:49.853Z,22.60
2022-08-28T02:13:16.689Z,22.60
2022-08-28T02:15:49.067Z,22.60
2022-08-28T02:18:15.854Z,22.50
2022-08-28T02:20:43.037Z,22.50
2022-08-28T02:23:10.209Z,22.60
2022-08-28T02:25:37.034Z,22.50
2022-08-28T02:28:06.491Z,22.50
2022-08-28T02:30:36.262Z,22.40
2022-08-28T02:33:03.122Z,22.40
2022-08-28T02:35:31.331Z,22.30
2022-08-28T02:38:01.059Z,22.20
2022-08-28T02:40:28.081Z,22.20
2022-08-28T02:42:54.920Z,22.20
2022-08-28T02:45:21.677Z,22.10
2022-08-28T02:47:51.230Z,22.10
2022-08-28T02:50:18.082Z,22.10
2022-08-28T02:52:44.937Z,22.00
2022-08-28T02:55:12.541Z,22.00
2022-08-28T02:57:39.831Z,22.00
2022-08-28T03:00:11.858Z,22.00
2022-08-28T03:02:41.672Z,22.00
2022-08-28T03:05:09.144Z,22.00
2022-08-28T03:07:35.896Z,22.00
2022-08-28T03:10:02.940Z,22.00
2022-08-28T03:12:29.675Z,22.00
2022-08-28T03:14:58.939Z,22.00
2022-08-28T03:17:25.783Z,21.90
2022-08-28T03:19:57.327Z,21.90
2022-08-28T03:22:55.484Z,21.90
2022-08-28T03:25:24.813Z,21.90
2022-08-28T03:27:53.814Z,21.90
2022-08-28T03:30:20.874Z,21.80
2022-08-28T03:32:50.207Z,21.80
2022-08-28T03:35:17.283Z,21.80
2022-08-28T03:37:46.632Z,21.80
2022-08-28T03:40:16.167Z,21.70
2022-08-28T03:42:52.981Z,21.70
2022-08-28T03:45:20.431Z,21.70
2022-08-28T03:47:47.251Z,21.70
2022-08-28T03:50:14.856Z,21.70
2022-08-28T03:52:46.443Z,21.70
2022-08-28T03:55:16.021Z,21.60
2022-08-28T03:57:45.842Z,21.60
2022-08-28T04:00:20.498Z,21.60
2022-08-28T04:02:47.310Z,21.60
2022-08-28T04:05:14.095Z,21.60
2022-08-28T04:07:40.872Z,21.50
2022-08-28T04:10:10.666Z,21.50
2022-08-28T04:12:37.680Z,21.60
2022-08-28T04:15:06.841Z,21.60
2022-08-28T04:17:39.132Z,21.60
2022-08-28T04:20:06.330Z,21.50
2022-08-28T04:22:33.120Z,21.60
2022-08-28T04:25:00.573Z,21.60
2022-08-28T04:27:27.377Z,21.60
2022-08-28T04:29:56.697Z,21.60
2022-08-28T04:32:23.735Z,21.50
2022-08-28T04:34:50.744Z,21.60
2022-08-28T04:37:20.025Z,21.60
2022-08-28T04:39:49.608Z,21.50
2022-08-28T04:42:16.338Z,21.50
2022-08-28T04:44:43.086Z,21.50
2022-08-28T04:47:09.811Z,21.50
2022-08-28T04:49:36.574Z,21.50
2022-08-28T04:52:08.038Z,21.50
2022-08-28T04:54:40.012Z,21.60
2022-08-28T04:57:09.215Z,21.60
2022-08-28T04:59:36.256Z,21.60
2022-08-28T05:02:05.738Z,21.60
2022-08-28T05:04:32.516Z,21.60
2022-08-28T05:06:59.256Z,21.60
2022-08-28T05:09:28.530Z,21.60
2022-08-28T05:11:55.290Z,21.60
2022-08-28T05:14:24.431Z,21.70
2022-08-28T05:16:57.730Z,21.80
2022-08-28T05:19:25.950Z,22.00
2022-08-28T05:21:53.074Z,22.10
2022-08-28T05:24:19.920Z,22.30
2022-08-28T05:26:47.982Z,22.50
2022-08-28T05:29:17.733Z,22.50
2022-08-28T05:31:47.441Z,22.50
2022-08-28T05:34:15.237Z,22.50
2022-08-28T05:36:41.981Z,22.40
2022-08-28T05:39:10.185Z,22.40
2022-08-28T05:41:37.339Z,22.50
2022-08-28T05:44:06.123Z,22.50
2022-08-28T05:46:39.748Z,22.50
2022-08-28T05:49:10.318Z,22.60
2022-08-28T05:51:40.202Z,22.70
2022-08-28T05:54:09.436Z,22.80
2022-08-28T05:56:40.521Z,22.90
2022-08-28T05:59:09.683Z,23.30
2022-08-28T06:01:55.376Z,23.70
2022-08-28T06:04:27.816Z,23.90
2022-08-28T06:06:54.727Z,23.90
2022-08-28T06:09:29.037Z,23.90
2022-08-28T06:11:59.874Z,23.70
2022-08-28T06:14:26.743Z,23.60
2022-08-28T06:16:54.792Z,23.50
2022-08-28T06:19:23.061Z,23.40
2022-08-28T06:21:52.495Z,23.30
2022-08-28T06:24:21.709Z,23.20
2022-08-28T06:26:48.515Z,23.20
2022-08-28T06:29:21.070Z,23.20
2022-08-28T06:31:57.032Z,23.40
2022-08-28T06:34:23.879Z,23.40
2022-08-28T06:36:53.997Z,23.50
2022-08-28T06:39:21.135Z,23.50
2022-08-28T06:41:53.747Z,23.50
2022-08-28T06:44:20.937Z,23.50
2022-08-28T06:46:48.782Z,23.50
2022-08-28T06:49:17.693Z,23.50
2022-08-28T06:51:49.341Z,23.50
2022-08-28T06:54:22.193Z,23.40
2022-08-28T06:56:49.576Z,23.50
2022-08-28T06:59:18.468Z,23.50
2022-08-28T07:01:47.730Z,23.50
2022-08-28T07:04:16.893Z,23.60
2022-08-28T07:06:47.048Z,23.60
2022-08-28T07:09:17.369Z,23.60
2022-08-28T07:11:46.681Z,23.70
2022-08-28T07:14:15.688Z,23.70
2022-08-28T07:16:42.554Z,23.70
2022-08-28T07:19:11.291Z,23.70
2022-08-28T07:21:42.272Z,23.70
2022-08-28T07:24:10.498Z,23.80
2022-08-28T07:26:37.508Z,23.90
2022-08-28T07:29:10.436Z,23.90
2022-08-28T07:31:42.477Z,23.90
2022-08-28T07:34:10.365Z,23.90
2022-08-28T07:36:39.442Z,24.00
2022-08-28T07:39:08.789Z,24.00
2022-08-28T07:41:40.213Z,24.10
2022-08-28T07:44:25.945Z,24.20
2022-08-28T07:46:56.819Z,24.20
2022-08-28T07:49:23.978Z,24.30
2022-08-28T07:51:53.931Z,24.40
2022-08-28T07:54:23.364Z,24.40
2022-08-28T07:56:50.496Z,24.50
2022-08-28T07:59:19.187Z,24.60
2022-08-28T08:01:50.697Z,24.60
2022-08-28T08:04:18.065Z,24.60
2022-08-28T08:06:47.617Z,24.70
2022-08-28T08:09:18.128Z,24.70
2022-08-28T08:11:47.429Z,24.70
2022-08-28T08:14:16.490Z,24.80
2022-08-28T08:16:44.502Z,24.90
2022-08-28T08:19:14.180Z,24.90
2022-08-28T08:21:45.580Z,24.90
2022-08-28T08:24:19.691Z,25.00
2022-08-28T08:26:58.840Z,25.00
2022-08-28T08:29:33.546Z,25.10
2022-08-28T08:32:07.219Z,25.10
2022-08-28T08:34:39.739Z,25.20
2022-08-28T08:37:06.701Z,25.20
2022-08-28T08:39:36.391Z,25.30
2022-08-28T08:42:04.272Z,25.40
2022-08-28T08:44:36.764Z,25.50
2022-08-28T08:47:09.556Z,25.50
2022-08-28T08:49:40.379Z,25.60
2022-08-28T08:52:15.534Z,25.70
2022-08-28T08:54:49.029Z,25.70
2022-08-28T08:57:18.590Z,25.80
2022-08-28T08:59:47.551Z,25.80
2022-08-28T09:02:21.307Z,25.90
2022-08-28T09:04:52.781Z,25.90
2022-08-28T09:07:27.945Z,25.90
2022-08-28T09:09:55.813Z,25.90
2022-08-28T09:12:23.170Z,25.90
2022-08-28T09:15:05.740Z,26.00
2022-08-28T09:17:46.437Z,26.00
2022-08-28T09:20:17.850Z,26.10
2022-08-28T09:22:53.101Z,26.10
2022-08-28T09:25:44.823Z,26.20
2022-08-28T09:28:18.520Z,26.20
2022-08-28T09:30:52.073Z,26.30
2022-08-28T09:33:46.150Z,26.40
2022-08-28T09:36:28.419Z,26.40
2022-08-28T09:39:05.342Z,26.40
2022-08-28T09:41:50.572Z,26.50
2022-08-28T09:44:17.428Z,26.50
2022-08-28T09:46:49.752Z,26.60
2022-08-28T09:49:19.359Z,26.60
2022-08-28T09:51:46.152Z,26.70
2022-08-28T09:54:19.721Z,26.70
2022-08-28T09:56:48.825Z,26.70
2022-08-28T09:59:16.549Z,26.70
2022-08-28T10:01:46.619Z,26.70
2022-08-28T10:04:38.174Z,26.70
2022-08-28T10:07:09.719Z,26.70
2022-08-28T10:10:14.294Z,26.80
2022-08-28T10:13:01.454Z,26.80
2022-08-28T10:15:47.010Z,26.90
2022-08-28T10:18:28.571Z,27.10
2022-08-28T10:21:18.900Z,27.30
2022-08-28T10:23:58.889Z,27.30
2022-08-28T10:26:40.454Z,27.40
2022-08-28T10:29:40.573Z,27.60
2022-08-28T10:32:34.267Z,27.70
2022-08-28T10:35:39.962Z,27.90
2022-08-28T10:38:24.068Z,28.00
2022-08-28T10:41:00.008Z,28.30
2022-08-28T10:43:55.901Z,28.50
2022-08-28T10:46:31.368Z,28.70
2022-08-28T10:49:11.831Z,28.80
2022-08-28T10:51:45.711Z,28.80
2022-08-28T10:54:36.618Z,28.90
2022-08-28T10:57:08.907Z,29.00
2022-08-28T10:59:42.319Z,29.10
2022-08-28T11:02:09.401Z,29.20
2022-08-28T11:04:36.260Z,29.20
2022-08-28T11:07:10.162Z,29.40
2022-08-28T11:09:38.969Z,29.50
2022-08-28T11:12:10.286Z,29.70
2022-08-28T11:14:48.575Z,29.70
2022-08-28T11:17:25.397Z,29.70
2022-08-28T11:20:15.376Z,29.90
2022-08-28T11:22:47.276Z,30.00
2022-08-28T11:25:35.474Z,30.30
2022-08-28T11:28:37.119Z,30.30
2022-08-28T11:31:03.865Z,30.50
2022-08-28T11:33:39.253Z,30.70
2022-08-28T11:36:21.597Z,30.70
2022-08-28T11:38:51.505Z,30.80
2022-08-28T11:41:31.368Z,30.80
2022-08-28T11:44:04.345Z,30.70
2022-08-28T11:46:35.517Z,30.80
2022-08-28T11:49:31.499Z,30.90
2022-08-28T11:52:23.138Z,30.90
2022-08-28T11:54:49.835Z,31.00
2022-08-28T11:57:28.813Z,31.00
2022-08-28T12:00:27.047Z,30.90
2022-08-28T12:03:15.022Z,30.80
2022-08-28T12:05:47.051Z,30.80
2022-08-28T12:08:34.694Z,30.80
2022-08-28T12:11:01.572Z,30.80
2022-08-28T12:13:51.110Z,30.80
2022-08-28T12:16:18.010Z,30.80
2022-08-28T12:18:47.852Z,30.70
2022-08-28T12:21:21.905Z,30.70
2022-08-28T12:24:09.094Z,30.50
2022-08-28T12:26:42.021Z,30.50
2022-08-28T12:29:08.780Z,30.50
2022-08-28T12:32:11.219Z,30.50
2022-08-28T12:34:42.453Z,30.50
2022-08-28T12:37:29.511Z,30.50
2022-08-28T12:40:08.039Z,30.50
2022-08-28T12:42:38.862Z,30.50
2022-08-28T12:45:07.914Z,30.50
2022-08-28T12:47:35.749Z,30.50
2022-08-28T12:50:21.562Z,30.50
2022-08-28T12:52:51.822Z,30.50
2022-08-28T12:55:23.760Z,30.60
2022-08-28T12:57:56.356Z,30.60
2022-08-28T13:00:26.109Z,30.70
2022-08-28T13:02:56.093Z,30.80
2022-08-28T13:05:30.342Z,30.80
2022-08-28T13:07:57.660Z,30.80
2022-08-28T13:10:36.830Z,30.90
2022-08-28T13:13:18.479Z,30.90
2022-08-28T13:15:48.371Z,30.90
2022-08-28T13:18:51.461Z,30.80
2022-08-28T13:21:25.539Z,30.90
2022-08-28T13:24:01.250Z,30.80
2022-08-28T13:26:35.450Z,30.90
2022-08-28T13:29:05.418Z,30.80
2022-08-28T13:31:35.000Z,30.80
2022-08-28T13:34:10.741Z,30.80
2022-08-28T13:36:44.974Z,30.90
2022-08-28T13:39:13.150Z,30.90
2022-08-28T13:41:44.562Z,30.90
2022-08-28T13:44:26.808Z,30.80
2022-08-28T13:46:53.767Z,30.70
2022-08-28T13:49:21.349Z,30.60
2022-08-28T13:51:50.790Z,30.60
2022-08-28T13:54:20.544Z,30.60
2022-08-28T13:56:50.770Z,30.70
2022-08-28T13:59:20.211Z,30.70
2022-08-28T14:02:06.008Z,30.80
2022-08-28T14:04:36.285Z,30.80
2022-08-28T14:07:03.030Z,30.80
2022-08-28T14:09:33.649Z,30.70
2022-08-28T14:12:00.412Z,30.80
2022-08-28T14:14:27.143Z,30.80
2022-08-28T14:16:56.885Z,30.80
2022-08-28T14:19:26.160Z,30.80
2022-08-28T14:21:57.744Z,30.80
2022-08-28T14:24:27.995Z,30.70
2022-08-28T14:26:55.480Z,30.70
2022-08-28T14:29:24.953Z,30.60
2022-08-28T14:31:51.866Z,30.60
2022-08-28T14:34:20.919Z,30.50
2022-08-28T14:36:55.052Z,30.40
2022-08-28T14:39:25.649Z,30.50
2022-08-28T14:41:54.908Z,30.30
2022-08-28T14:44:22.533Z,30.40
2022-08-28T14:46:59.106Z,30.40
2022-08-28T14:49:30.578Z,30.40
2022-08-28T14:51:57.576Z,30.50
2022-08-28T14:54:25.393Z,30.50
2022-08-28T14:56:52.577Z,30.50
2022-08-28T14:59:24.520Z,30.50
2022-08-28T15:01:52.463Z,30.30
2022-08-28T15:04:22.705Z,30.20
2022-08-28T15:06:58.240Z,30.20
2022-08-28T15:09:25.187Z,30.20
2022-08-28T15:11:51.936Z,30.20
2022-08-28T15:14:20.848Z,30.20
2022-08-28T15:16:48.057Z,30.20
2022-08-28T15:19:17.785Z,30.20
2022-08-28T15:21:47.686Z,30.20
2022-08-28T15:24:15.633Z,30.20
2022-08-28T15:26:42.455Z,30.10
2022-08-28T15:29:12.090Z,30.20
2022-08-28T15:31:43.127Z,30.10
2022-08-28T15:34:18.245Z,30.10
2022-08-28T15:36:45.507Z,30.00
2022-08-28T15:39:40.369Z,30.00
2022-08-28T15:42:07.557Z,30.00
2022-08-28T15:44:34.301Z,29.90
2022-08-28T15:47:02.185Z,29.80
2022-08-28T15:49:36.274Z,29.70
2022-08-28T15:52:12.497Z,29.60
2022-08-28T15:54:41.723Z,29.60
2022-08-28T15:57:08.694Z,29.50
2022-08-28T15:59:49.161Z,29.40
2022-08-28T16:02:22.813Z,29.40
2022-08-28T16:04:49.707Z,29.40
2022-08-28T16:07:16.938Z,29.30
2022-08-28T16:09:46.237Z,29.30
2022-08-28T16:12:13.056Z,29.30
2022-08-28T16:14:42.293Z,29.30
2022-08-28T16:17:11.192Z,29.20
2022-08-28T16:19:39.847Z,29.20
2022-08-28T16:22:09.465Z,29.20
2022-08-28T16:24:36.881Z,29.10
2022-08-28T16:27:03.710Z,29.10
2022-08-28T16:29:33.239Z,29.00
2022-08-28T16:32:03.301Z,29.00
2022-08-28T16:34:32.477Z,28.90
2022-08-28T16:37:01.944Z,28.90
2022-08-28T16:39:30.820Z,28.80
2022-08-28T16:42:02.253Z,28.80
2022-08-28T16:44:29.149Z,28.70
2022-08-28T16:46:56.021Z,28.70
2022-08-28T16:49:23.676Z,28.70
2022-08-28T16:51:50.552Z,28.70
2022-08-28T16:54:21.553Z,28.70
2022-08-28T16:56:50.858Z,28.60
2022-08-28T16:59:24.096Z,28.60
2022-08-28T17:01:53.898Z,28.60
2022-08-28T17:04:21.754Z,28.50
2022-08-28T17:06:48.608Z,28.50
2022-08-28T17:09:21.152Z,28.50
2022-08-28T17:11:52.521Z,28.40
2022-08-28T17:14:22.939Z,28.30
2022-08-28T17:16:49.925Z,28.30
2022-08-28T17:19:16.840Z,28.20
2022-08-28T17:22:02.130Z,28.20
2022-08-28T17:24:29.016Z,28.10
2022-08-28T17:26:55.751Z,28.10
2022-08-28T17:29:25.466Z,28.10
2022-08-28T17:31:52.204Z,27.80
2022-08-28T17:34:21.298Z,27.60
2022-08-28T17:36:53.118Z,27.30
2022-08-28T17:39:20.071Z,27.10
2022-08-28T17:41:48.988Z,27.00
2022-08-28T17:44:15.728Z,26.70
2022-08-28T17:46:42.749Z,26.40
2022-08-28T17:49:09.973Z,26.20
2022-08-28T17:51:43.651Z,26.10
2022-08-28T17:54:18.292Z,25.80
2022-08-28T17:56:47.414Z,25.70
2022-08-28T17:59:14.271Z,25.50
2022-08-28T18:01:41.889Z,25.40
2022-08-28T18:04:09.071Z,25.30
2022-08-28T18:06:35.981Z,25.20
2022-08-28T18:09:03.438Z,25.10
2022-08-28T18:11:30.243Z,25.00
2022-08-28T18:13:57.261Z,24.90
2022-08-28T18:16:31.159Z,24.90
2022-08-28T18:18:59.427Z,24.90
2022-08-28T18:21:28.290Z,24.70
2022-08-28T18:23:57.545Z,24.70
2022-08-28T18:26:26.767Z,24.60
2022-08-28T18:28:53.586Z,24.60
2022-08-28T18:31:20.414Z,24.50
2022-08-28T18:33:52.161Z,24.50
2022-08-28T18:36:23.231Z,24.50
2022-08-28T18:38:52.367Z,24.40
2022-08-28T18:41:20.156Z,24.30
2022-08-28T18:43:47.288Z,24.20
2022-08-28T18:46:16.566Z,24.20
2022-08-28T18:48:43.329Z,24.20
2022-08-28T18:51:13.236Z,24.10
2022-08-28T18:53:43.168Z,24.10
2022-08-28T18:56:10.369Z,24.10
2022-08-28T18:58:39.530Z,24.00
2022-08-28T19:01:09.367Z,24.00
2022-08-28T19:03:38.548Z,23.90
2022-08-28T19:06:06.383Z,23.90
2022-08-28T19:08:33.284Z,23.90
2022-08-28T19:11:00.024Z,23.90
2022-08-28T19:13:27.899Z,23.70
2022-08-28T19:15:54.725Z,23.70
2022-08-28T19:18:21.665Z,23.60
2022-08-28T19:20:48.719Z,23.60
2022-08-28T19:23:17.919Z,23.60
2022-08-28T19:25:44.892Z,23.50
2022-08-28T19:28:11.633Z,23.50
2022-08-28T19:30:38.402Z,23.50
2022-08-28T19:33:05.786Z,23.50
2022-08-28T19:35:33.855Z,23.50
2022-08-28T19:38:00.935Z,23.50
2022-08-28T19:40:27.783Z,23.60
2022-08-28T19:42:54.730Z,23.50
2022-08-28T19:45:25.850Z,23.50
2022-08-28T19:47:52.691Z,23.50
2022-08-28T19:50:22.041Z,23.50
2022-08-28T19:52:48.895Z,23.60
2022-08-28T19:55:19.923Z,23.50
2022-08-28T19:57:49.899Z,23.40
2022-08-28T20:00:23.668Z,23.30
2022-08-28T20:02:52.377Z,23.20
2022-08-28T20:05:19.999Z,23.20
2022-08-28T20:07:48.982Z,23.10
2022-08-28T20:10:16.117Z,23.10
2022-08-28T20:12:48.377Z,23.10
2022-08-28T20:15:16.865Z,23.10
2022-08-28T20:17:44.082Z,23.10
2022-08-28T20:20:25.663Z,23.10
2022-08-28T20:22:56.113Z,23.10
2022-08-28T20:25:23.647Z,23.10
2022-08-28T20:27:52.847Z,23.10
2022-08-28T20:30:21.897Z,23.10
2022-08-28T20:32:48.974Z,23.00
2022-08-28T20:35:15.945Z,23.00
2022-08-28T20:37:45.278Z,23.00
2022-08-28T20:40:17.158Z,23.00
2022-08-28T20:42:44.193Z,23.00
2022-08-28T20:45:14.138Z,23.00
2022-08-28T20:47:43.151Z,23.00
2022-08-28T20:50:10.195Z,22.90
2022-08-28T20:52:37.270Z,22.90
2022-08-28T20:55:07.715Z,22.90
2022-08-28T20:57:34.495Z,22.90
2022-08-28T21:00:05.684Z,22.80
2022-08-28T21:02:34.813Z,22.80
2022-08-28T21:05:01.720Z,22.80
2022-08-28T21:07:28.569Z,22.80
2022-08-28T21:10:05.761Z,22.80
2022-08-28T21:12:35.237Z,22.90
2022-08-28T21:15:02.432Z,22.90
2022-08-28T21:17:31.357Z,23.00
2022-08-28T21:20:04.372Z,23.00
2022-08-28T21:22:31.784Z,23.00
2022-08-28T21:25:02.343Z,23.00
2022-08-28T21:27:29.193Z,23.00
2022-08-28T21:29:57.586Z,23.00
2022-08-28T21:32:29.146Z,23.00
2022-08-28T21:34:58.505Z,23.00
2022-08-28T21:37:27.395Z,23.00
2022-08-28T21:39:56.308Z,22.90
2022-08-28T21:42:25.628Z,22.90
2022-08-28T21:44:54.891Z,22.90
2022-08-28T21:47:24.399Z,22.90
2022-08-28T21:49:52.395Z,22.90
2022-08-28T21:52:19.572Z,22.90
2022-08-28T21:54:46.406Z,22.90
2022-08-28T21:57:13.143Z,22.90
2022-08-28T21:59:43.388Z,22.80
2022-08-28T22:02:10.188Z,22.80
2022-08-28T22:04:36.977Z,22.70
2022-08-28T22:07:03.727Z,22.60
2022-08-28T22:09:30.484Z,22.50
2022-08-28T22:11:57.238Z,22.50
2022-08-28T22:14:25.181Z,22.50
2022-08-28T22:16:52.090Z,22.60
2022-08-28T22:19:18.952Z,22.50
2022-08-28T22:22:04.298Z,22.50
2022-08-28T22:24:34.203Z,22.50
2022-08-28T22:27:00.975Z,22.50
2022-08-28T22:29:28.751Z,22.50
2022-08-28T22:31:55.540Z,22.50
2022-08-28T22:34:22.322Z,22.40
2022-08-28T22:36:49.040Z,22.40
2022-08-28T22:39:15.780Z,22.30
2022-08-28T22:41:43.314Z,22.30
2022-08-28T22:44:10.148Z,22.30
2022-08-28T22:46:36.883Z,22.30
2022-08-28T22:49:04.116Z,22.30
2022-08-28T22:51:33.857Z,22.40
2022-08-28T22:54:03.251Z,22.40
2022-08-28T22:56:36.192Z,22.40
2022-08-28T22:59:02.970Z,22.40
2022-08-28T23:01:29.788Z,22.30
2022-08-28T23:03:57.767Z,22.40
2022-08-28T23:06:24.570Z,22.30
2022-08-28T23:08:56.334Z,22.10
2022-08-28T23:11:25.245Z,22.00
2022-08-28T23:13:51.986Z,22.00
2022-08-28T23:16:24.031Z,21.90
2022-08-28T23:19:07.276Z,22.00
2022-08-28T23:21:35.463Z,22.00
2022-08-28T23:24:09.145Z,22.00
2022-08-28T23:26:35.978Z,22.00
2022-08-28T23:29:05.298Z,22.00
2022-08-28T23:31:41.722Z,22.00
2022-08-28T23:34:08.693Z,22.00
2022-08-28T23:36:42.939Z,22.10
2022-08-28T23:39:10.218Z,22.10
2022-08-28T23:41:36.968Z,22.20
2022-08-28T23:44:08.331Z,22.10
2022-08-28T23:46:41.148Z,22.20
2022-08-28T23:49:10.661Z,22.30
2022-08-28T23:51:37.733Z,22.20
2022-08-28T23:54:04.666Z,22.20
2022-08-28T23:56:32.898Z,22.30
2022-08-28T23:59:01.804Z,22.20
